createdAt,value
2019-02-03T00:00:33.085Z,25.27
2019-02-03T00:03:03.871Z,24.47
2019-02-03T00:05:35.047Z,23.83
2019-02-03T00:08:05.938Z,23.93
2019-02-03T00:10:36.774Z,23.53
2019-02-03T00:13:07.549Z,25.27
2019-02-03T00:15:38.324Z,24.80
2019-02-03T00:18:09.400Z,25.12
2019-02-03T00:20:40.174Z,24.60
2019-02-03T00:23:11.073Z,24.77
2019-02-03T00:25:41.833Z,24.53
2019-02-03T00:28:12.605Z,23.20
2019-02-03T00:30:43.376Z,22.60
2019-02-03T00:33:14.150Z,22.10
2019-02-03T00:35:44.914Z,22.97
2019-02-03T00:38:23.115Z,23.70
2019-02-03T00:40:48.374Z,23.62
2019-02-03T00:43:19.149Z,22.93
2019-02-03T00:45:49.920Z,23.13
2019-02-03T00:48:20.845Z,23.03
2019-02-03T00:50:51.693Z,23.27
2019-02-03T00:53:23.006Z,24.25
2019-02-03T00:55:53.899Z,24.60
2019-02-03T00:58:24.793Z,22.17
2019-02-03T01:00:55.572Z,22.93
2019-02-03T01:03:26.514Z,25.03
2019-02-03T01:05:57.626Z,21.48
2019-02-03T01:08:28.391Z,24.50
2019-02-03T01:10:59.148Z,21.47
2019-02-03T01:13:29.958Z,21.93
2019-02-03T01:16:00.847Z,25.03
2019-02-03T01:18:31.913Z,25.25
2019-02-03T01:21:02.674Z,23.60
2019-02-03T01:23:33.447Z,22.97
2019-02-03T01:26:04.217Z,22.00
2019-02-03T01:28:34.996Z,22.83
2019-02-03T01:31:06.065Z,21.10
2019-02-03T01:33:36.845Z,21.57
2019-02-03T01:36:07.601Z,21.77
2019-02-03T01:38:38.602Z,22.97
2019-02-03T01:41:09.356Z,23.40
2019-02-03T01:43:40.337Z,19.60
2019-02-03T01:46:11.195Z,20.83
2019-02-03T01:48:41.983Z,21.63
2019-02-03T01:51:12.741Z,23.53
2019-02-03T01:53:43.509Z,22.93
2019-02-03T01:56:14.288Z,22.07
2019-02-03T01:58:45.112Z,20.30
2019-02-03T02:01:16.307Z,20.83
2019-02-03T02:03:47.020Z,21.25
2019-02-03T02:06:17.794Z,23.10
2019-02-03T02:08:48.553Z,19.87
2019-02-03T02:11:19.332Z,23.33
2019-02-03T02:13:50.112Z,22.63
2019-02-03T02:16:20.880Z,23.20
2019-02-03T02:18:51.696Z,20.87
2019-02-03T02:21:22.636Z,22.00
2019-02-03T02:23:53.371Z,21.80
2019-02-03T02:26:24.147Z,22.30
2019-02-03T02:28:54.918Z,21.63
2019-02-03T02:31:25.695Z,20.97
2019-02-03T02:33:56.611Z,20.70
2019-02-03T02:36:27.351Z,21.77
2019-02-03T02:38:58.126Z,21.83
2019-02-03T02:41:28.913Z,22.50
2019-02-03T02:43:59.664Z,22.57
2019-02-03T02:46:30.435Z,19.20
2019-02-03T02:49:01.203Z,21.60
2019-02-03T02:51:31.988Z,20.43
2019-02-03T02:54:03.050Z,19.60
2019-02-03T02:56:33.860Z,20.25
2019-02-03T02:59:04.616Z,20.17
2019-02-03T03:01:35.504Z,19.27
2019-02-03T03:04:06.274Z,20.47
2019-02-03T03:06:37.056Z,20.13
2019-02-03T03:09:09.019Z,20.27
2019-02-03T03:11:39.800Z,18.25
2019-02-03T03:14:10.692Z,19.80
2019-02-03T03:16:41.446Z,20.00
2019-02-03T03:19:12.216Z,18.43
2019-02-03T03:21:42.998Z,17.93
2019-02-03T03:24:13.765Z,15.90
2019-02-03T03:26:44.562Z,16.87
2019-02-03T03:29:15.342Z,16.03
2019-02-03T03:31:46.115Z,17.70
2019-02-03T03:34:17.010Z,16.03
2019-02-03T03:36:47.798Z,15.37
2019-02-03T03:39:18.600Z,17.10
2019-02-03T03:41:49.342Z,15.07
2019-02-03T03:44:20.116Z,14.00
2019-02-03T03:46:51.349Z,15.78
2019-02-03T03:49:22.116Z,14.90
2019-02-03T03:51:52.886Z,17.23
2019-02-03T03:54:23.652Z,15.80
2019-02-03T03:56:54.454Z,15.60
2019-02-03T03:59:25.527Z,16.45
2019-02-03T04:01:56.586Z,16.37
2019-02-03T04:04:27.852Z,15.70
2019-02-03T04:06:58.882Z,15.30
2019-02-03T04:09:29.662Z,16.60
2019-02-03T04:12:00.725Z,16.60
2019-02-03T04:14:31.507Z,16.70
2019-02-03T04:17:02.739Z,16.47
2019-02-03T04:19:33.513Z,13.65
2019-02-03T04:22:04.373Z,17.00
2019-02-03T04:24:35.454Z,16.55
2019-02-03T04:27:06.212Z,14.30
2019-02-03T04:29:36.988Z,15.80
2019-02-03T04:32:07.755Z,15.10
2019-02-03T04:34:38.579Z,15.50
2019-02-03T04:37:09.557Z,15.23
2019-02-03T04:39:40.331Z,15.10
2019-02-03T04:42:11.394Z,15.33
2019-02-03T04:44:42.177Z,15.40
2019-02-03T04:47:12.971Z,14.63
2019-02-03T04:49:44.045Z,14.93
2019-02-03T04:52:14.821Z,13.90
2019-02-03T04:54:45.688Z,14.93
2019-02-03T04:57:16.575Z,13.80
2019-02-03T04:59:47.368Z,14.20
2019-02-03T05:02:18.511Z,13.77
2019-02-03T05:04:49.304Z,13.20
2019-02-03T05:07:20.082Z,13.70
2019-02-03T05:09:50.901Z,13.83
2019-02-03T05:12:21.657Z,13.20
2019-02-03T05:14:52.424Z,13.33
2019-02-03T05:17:23.185Z,11.93
2019-02-03T05:19:54.077Z,12.13
2019-02-03T05:22:24.900Z,12.97
2019-02-03T05:24:55.682Z,12.60
2019-02-03T05:27:26.453Z,14.77
2019-02-03T05:29:57.234Z,13.17
2019-02-03T05:32:28.013Z,13.53
2019-02-03T05:34:58.785Z,12.93
2019-02-03T05:37:29.550Z,12.70
2019-02-03T05:40:00.366Z,12.43
2019-02-03T05:42:31.098Z,13.70
2019-02-03T05:45:02.976Z,13.40
2019-02-03T05:47:33.740Z,13.50
2019-02-03T05:50:08.326Z,11.70
2019-02-03T05:52:39.188Z,13.95
2019-02-03T05:55:10.560Z,11.80
2019-02-03T05:57:41.325Z,12.55
2019-02-03T06:00:25.327Z,12.07
2019-02-03T06:02:56.185Z,11.80
2019-02-03T06:05:26.960Z,11.23
2019-02-03T06:07:57.740Z,10.60
2019-02-03T06:10:28.505Z,11.50
2019-02-03T06:12:59.681Z,10.45
2019-02-03T06:15:30.451Z,10.43
2019-02-03T06:18:01.211Z,10.10
2019-02-03T06:20:31.991Z,10.50
2019-02-03T06:23:02.865Z,10.33
2019-02-03T06:25:34.044Z,10.28
2019-02-03T06:28:04.804Z,10.93
2019-02-03T06:30:57.563Z,10.67
2019-02-03T06:33:28.331Z,9.25
2019-02-03T06:35:59.119Z,10.60
2019-02-03T06:38:29.902Z,11.13
2019-02-03T06:41:00.683Z,10.70
2019-02-03T06:43:31.444Z,7.77
2019-02-03T06:46:20.983Z,9.90
2019-02-03T06:48:53.640Z,10.48
2019-02-03T06:51:24.415Z,9.43
2019-02-03T06:53:56.236Z,8.83
2019-02-03T06:56:27.023Z,8.40
2019-02-03T06:58:57.811Z,9.97
2019-02-03T07:01:28.586Z,8.97
2019-02-03T07:03:59.358Z,9.53
2019-02-03T07:06:30.154Z,8.57
2019-02-03T07:09:00.969Z,8.77
2019-02-03T07:11:31.757Z,8.83
2019-02-03T07:14:02.627Z,8.70
2019-02-03T07:16:40.514Z,7.73
2019-02-03T07:19:06.066Z,9.38
2019-02-03T07:21:36.853Z,8.37
2019-02-03T07:24:07.615Z,8.43
2019-02-03T07:26:38.406Z,8.80
2019-02-03T07:29:09.180Z,7.70
2019-02-03T07:31:39.947Z,8.70
2019-02-03T07:34:10.703Z,7.73
2019-02-03T07:36:41.476Z,7.67
2019-02-03T07:39:12.260Z,9.27
2019-02-03T07:41:43.048Z,7.67
2019-02-03T07:44:13.808Z,9.10
2019-02-03T07:46:44.581Z,6.93
2019-02-03T07:49:15.345Z,7.87
2019-02-03T07:51:46.119Z,7.87
2019-02-03T07:54:16.916Z,8.50
2019-02-03T07:56:47.664Z,8.00
2019-02-03T07:59:18.449Z,9.07
2019-02-03T08:01:49.268Z,7.60
2019-02-03T08:04:20.027Z,6.03
2019-02-03T08:06:50.818Z,7.43
2019-02-03T08:09:21.604Z,7.23
2019-02-03T08:11:52.425Z,7.23
2019-02-03T08:14:23.197Z,6.97
2019-02-03T08:16:54.021Z,6.03
2019-02-03T08:19:24.830Z,8.20
2019-02-03T08:21:55.615Z,7.63
2019-02-03T08:24:26.499Z,7.60
2019-02-03T08:26:57.273Z,7.63
2019-02-03T08:29:28.038Z,8.90
2019-02-03T08:31:58.813Z,8.93
2019-02-03T08:34:29.634Z,8.23
2019-02-03T08:37:00.857Z,8.43
2019-02-03T08:39:31.613Z,7.80
2019-02-03T08:42:02.702Z,9.07
2019-02-03T08:44:33.495Z,9.10
2019-02-03T08:47:06.431Z,9.03
2019-02-03T08:49:37.388Z,8.55
2019-02-03T08:52:08.163Z,9.57
2019-02-03T08:54:56.771Z,9.17
2019-02-03T08:57:11.657Z,8.43
2019-02-03T08:59:42.474Z,8.63
2019-02-03T09:02:13.269Z,7.93
2019-02-03T09:04:44.086Z,9.30
2019-02-03T09:07:14.884Z,9.00
2019-02-03T09:09:45.677Z,8.07
2019-02-03T09:12:16.658Z,7.57
2019-02-03T09:14:47.500Z,7.97
2019-02-03T09:17:18.454Z,6.03
2019-02-03T09:19:49.314Z,7.43
2019-02-03T09:22:20.202Z,9.00
2019-02-03T09:24:51.105Z,7.67
2019-02-03T09:27:21.973Z,8.20
2019-02-03T09:29:52.818Z,8.10
2019-02-03T09:32:23.771Z,8.17
2019-02-03T09:34:54.550Z,8.10
2019-02-03T09:37:25.425Z,8.07
2019-02-03T09:39:56.268Z,7.20
2019-02-03T09:42:27.087Z,9.47
2019-02-03T09:44:57.949Z,8.17
2019-02-03T09:47:28.831Z,8.80
2019-02-03T09:49:59.729Z,9.00
2019-02-03T09:52:30.507Z,8.97
2019-02-03T09:55:01.306Z,10.00
2019-02-03T09:57:32.104Z,8.80
2019-02-03T10:00:09.652Z,9.30
2019-02-03T10:02:40.622Z,9.25
2019-02-03T10:05:11.725Z,7.13
2019-02-03T10:07:42.475Z,7.70
2019-02-03T10:10:30.683Z,7.77
2019-02-03T10:13:02.231Z,8.13
2019-02-03T10:15:33.025Z,7.45
2019-02-03T10:18:06.532Z,7.20
2019-02-03T10:20:37.372Z,7.70
2019-02-03T10:23:08.188Z,8.30
2019-02-03T10:25:39.056Z,7.53
2019-02-03T10:28:09.900Z,7.23
2019-02-03T10:30:40.709Z,7.43
2019-02-03T10:33:11.494Z,6.17
2019-02-03T10:35:42.294Z,6.03
2019-02-03T10:38:13.361Z,6.73
2019-02-03T10:40:44.147Z,6.05
2019-02-03T10:43:15.059Z,7.07
2019-02-03T10:45:45.845Z,6.77
2019-02-03T10:48:16.624Z,6.10
2019-02-03T10:50:47.520Z,6.17
2019-02-03T10:53:18.844Z,6.60
2019-02-03T10:55:49.944Z,6.70
2019-02-03T10:58:20.736Z,5.75
2019-02-03T11:00:51.519Z,5.93
2019-02-03T11:03:24.003Z,6.15
2019-02-03T11:05:54.878Z,6.93
2019-02-03T11:08:25.747Z,5.43
2019-02-03T11:10:56.532Z,6.43
2019-02-03T11:13:27.300Z,5.87
2019-02-03T11:15:58.481Z,5.75
2019-02-03T11:18:29.385Z,5.87
2019-02-03T11:21:00.258Z,6.03
2019-02-03T11:23:31.059Z,6.13
2019-02-03T11:26:01.954Z,5.53
2019-02-03T11:28:32.732Z,5.90
2019-02-03T11:31:04.008Z,6.30
2019-02-03T11:33:34.814Z,6.13
2019-02-03T11:36:05.752Z,5.80
2019-02-03T11:38:36.640Z,5.70
2019-02-03T11:41:07.527Z,5.67
2019-02-03T11:43:38.465Z,7.20
2019-02-03T11:46:09.400Z,6.20
2019-02-03T11:48:40.165Z,6.40
2019-02-03T11:51:11.024Z,7.23
2019-02-03T11:53:41.828Z,5.30
2019-02-03T11:56:12.628Z,6.67
2019-02-03T11:58:43.586Z,7.10
2019-02-03T12:01:16.635Z,7.07
2019-02-03T12:03:47.474Z,6.22
2019-02-03T12:06:18.244Z,7.10
2019-02-03T12:08:49.215Z,7.62
2019-02-03T12:11:20.342Z,7.47
2019-02-03T12:13:51.184Z,6.85
2019-02-03T12:16:21.962Z,7.80
2019-02-03T12:18:53.042Z,6.53
2019-02-03T12:21:24.123Z,8.13
2019-02-03T12:23:55.137Z,6.75
2019-02-03T12:26:26.049Z,5.85
2019-02-03T12:28:57.003Z,7.20
2019-02-03T12:31:28.073Z,6.93
2019-02-03T12:33:59.302Z,7.20
2019-02-03T12:36:30.695Z,6.37
2019-02-03T12:39:01.803Z,7.87
2019-02-03T12:41:32.585Z,7.25
2019-02-03T12:44:03.711Z,6.75
2019-02-03T12:46:34.570Z,6.07
2019-02-03T12:49:05.496Z,7.20
2019-02-03T12:51:36.613Z,7.10
2019-02-03T12:54:07.574Z,7.00
2019-02-03T12:56:38.734Z,7.25
2019-02-03T12:59:09.664Z,6.63
2019-02-03T13:01:40.576Z,7.47
2019-02-03T13:04:11.382Z,6.47
2019-02-03T13:06:42.494Z,7.80
2019-02-03T13:09:14.062Z,7.37
2019-02-03T13:11:44.875Z,7.03
2019-02-03T13:14:16.012Z,7.23
2019-02-03T13:16:46.939Z,6.22
2019-02-03T13:19:18.183Z,7.43
2019-02-03T13:21:49.228Z,8.43
2019-02-03T13:24:20.261Z,7.33
2019-02-03T13:26:51.061Z,7.10
2019-02-03T13:29:22.001Z,6.90
2019-02-03T13:31:53.219Z,7.30
2019-02-03T13:34:24.042Z,8.43
2019-02-03T13:36:54.943Z,6.93
2019-02-03T13:39:25.883Z,6.63
2019-02-03T13:41:57.109Z,7.73
2019-02-03T13:44:28.038Z,8.95
2019-02-03T13:46:58.943Z,7.63
2019-02-03T13:49:30.041Z,7.30
2019-02-03T13:52:00.976Z,8.60
2019-02-03T13:54:31.769Z,7.73
2019-02-03T13:57:03.282Z,8.10
2019-02-03T13:59:34.328Z,7.37
2019-02-03T14:02:05.257Z,8.45
2019-02-03T14:04:38.353Z,8.50
2019-02-03T14:07:09.452Z,8.93
2019-02-03T14:09:40.548Z,7.03
2019-02-03T14:12:11.612Z,8.20
2019-02-03T14:14:42.839Z,9.53
2019-02-03T14:17:13.929Z,8.25
2019-02-03T14:19:44.888Z,8.28
2019-02-03T14:22:15.821Z,7.57
2019-02-03T14:24:47.213Z,6.60
2019-02-03T14:27:18.568Z,7.45
2019-02-03T14:29:49.638Z,7.75
2019-02-03T14:32:21.119Z,7.92
2019-02-03T14:34:52.063Z,7.42
2019-02-03T14:37:23.016Z,7.83
2019-02-03T14:39:54.110Z,7.07
2019-02-03T14:42:25.336Z,7.70
2019-02-03T14:44:57.312Z,8.93
2019-02-03T14:47:28.914Z,7.40
2019-02-03T14:49:59.845Z,7.90
2019-02-03T14:52:30.758Z,7.20
2019-02-03T14:55:01.586Z,7.07
2019-02-03T14:57:32.690Z,7.47
2019-02-03T15:00:19.495Z,6.67
2019-02-03T15:02:50.211Z,8.18
2019-02-03T15:05:21.237Z,7.33
2019-02-03T15:07:52.280Z,7.10
2019-02-03T15:10:23.320Z,6.87
2019-02-03T15:12:54.396Z,6.80
2019-02-03T15:15:29.068Z,7.08
2019-02-03T15:18:00.601Z,6.50
2019-02-03T15:20:32.555Z,7.50
2019-02-03T15:23:04.504Z,7.72
2019-02-03T15:25:36.306Z,7.33
2019-02-03T15:28:10.529Z,8.58
2019-02-03T15:30:42.995Z,9.08
2019-02-03T15:33:13.937Z,6.47
2019-02-03T15:35:44.884Z,7.50
2019-02-03T15:38:15.642Z,8.47
2019-02-03T15:40:46.864Z,7.20
2019-02-03T15:43:24.989Z,8.80
2019-02-03T15:45:50.751Z,8.28
2019-02-03T15:48:21.658Z,6.67
2019-02-03T15:50:52.580Z,7.93
2019-02-03T15:53:23.668Z,6.77
2019-02-03T15:55:54.633Z,7.22
2019-02-03T15:58:25.575Z,6.83
2019-02-03T16:00:56.532Z,8.63
2019-02-03T16:03:27.470Z,7.37
2019-02-03T16:05:58.584Z,6.57
2019-02-03T16:08:29.667Z,7.20
2019-02-03T16:11:00.782Z,6.28
2019-02-03T16:13:37.278Z,7.33
2019-02-03T16:16:05.264Z,7.25
2019-02-03T16:18:36.622Z,6.85
2019-02-03T16:21:07.604Z,6.97
2019-02-03T16:23:38.839Z,7.92
2019-02-03T16:26:09.803Z,5.58
2019-02-03T16:28:40.937Z,6.70
2019-02-03T16:31:11.906Z,7.42
2019-02-03T16:33:42.826Z,7.40
2019-02-03T16:36:13.918Z,8.50
2019-02-03T16:38:45.548Z,7.50
2019-02-03T16:41:16.621Z,7.17
2019-02-03T16:43:49.289Z,7.37
2019-02-03T16:46:20.530Z,8.73
2019-02-03T16:48:51.469Z,7.60
2019-02-03T16:51:22.788Z,9.68
2019-02-03T16:53:54.169Z,7.22
2019-02-03T16:56:25.311Z,8.68
2019-02-03T16:58:56.638Z,7.87
2019-02-03T17:01:27.762Z,8.78
2019-02-03T17:03:58.826Z,9.05
2019-02-03T17:06:31.942Z,9.05
2019-02-03T17:09:06.680Z,7.85
2019-02-03T17:11:37.631Z,9.10
2019-02-03T17:14:08.975Z,9.43
2019-02-03T17:16:40.353Z,8.45
2019-02-03T17:19:11.836Z,8.40
2019-02-03T17:21:43.258Z,8.98
2019-02-03T17:24:14.324Z,9.83
2019-02-03T17:26:45.443Z,9.50
2019-02-03T17:29:16.224Z,9.08
2019-02-03T17:31:47.303Z,8.87
2019-02-03T17:34:18.393Z,8.95
2019-02-03T17:36:49.480Z,9.30
2019-02-03T17:39:20.794Z,10.60
2019-02-03T17:41:51.893Z,11.60
2019-02-03T17:44:23.094Z,9.10
2019-02-03T17:46:54.425Z,11.22
2019-02-03T17:49:25.563Z,10.55
2019-02-03T17:51:56.616Z,10.40
2019-02-03T17:54:27.709Z,11.15
2019-02-03T17:56:58.641Z,11.55
2019-02-03T17:59:29.790Z,11.17
2019-02-03T18:02:01.239Z,10.68
2019-02-03T18:04:32.551Z,11.33
2019-02-03T18:07:03.629Z,11.68
2019-02-03T18:09:35.035Z,12.25
2019-02-03T18:12:06.498Z,11.65
2019-02-03T18:14:38.242Z,11.97
2019-02-03T18:17:09.311Z,11.03
2019-02-03T18:19:40.290Z,12.47
2019-02-03T18:22:11.670Z,10.48
2019-02-03T18:24:43.130Z,12.37
2019-02-03T18:27:14.542Z,10.58
2019-02-03T18:29:46.233Z,11.10
2019-02-03T18:32:17.807Z,10.23
2019-02-03T18:34:49.016Z,10.43
2019-02-03T18:37:20.638Z,10.72
2019-02-03T18:39:52.065Z,9.98
2019-02-03T18:42:23.580Z,10.38
2019-02-03T18:44:55.108Z,10.40
2019-02-03T18:47:26.182Z,10.75
2019-02-03T18:49:57.945Z,11.28
2019-02-03T18:52:29.279Z,10.50
2019-02-03T18:55:00.532Z,11.65
2019-02-03T18:57:32.414Z,10.72
2019-02-03T19:00:07.462Z,10.18
2019-02-03T19:02:39.067Z,11.20
2019-02-03T19:05:13.414Z,9.78
2019-02-03T19:07:45.043Z,10.95
2019-02-03T19:10:19.078Z,9.48
2019-02-03T19:12:50.616Z,10.38
2019-02-03T19:15:24.543Z,9.65
2019-02-03T19:17:55.889Z,9.78
2019-02-03T19:20:33.602Z,8.45
2019-02-03T19:23:05.938Z,9.65
2019-02-03T19:25:37.603Z,8.53
2019-02-03T19:28:08.953Z,9.73
2019-02-03T19:30:40.634Z,9.48
2019-02-03T19:33:12.164Z,10.00
2019-02-03T19:35:43.815Z,9.05
2019-02-03T19:38:15.430Z,9.20
2019-02-03T19:40:48.565Z,9.68
2019-02-03T19:43:20.203Z,10.60
2019-02-03T19:45:53.102Z,10.10
2019-02-03T19:48:24.644Z,8.68
2019-02-03T19:50:56.415Z,9.55
2019-02-03T19:53:28.479Z,9.43
2019-02-03T19:56:00.042Z,8.40
2019-02-03T19:58:31.583Z,8.55
2019-02-03T20:01:03.123Z,9.20
2019-02-03T20:03:34.580Z,9.18
2019-02-03T20:06:06.288Z,9.68
2019-02-03T20:08:37.731Z,8.53
2019-02-03T20:11:09.094Z,9.65
2019-02-03T20:13:40.582Z,10.08
2019-02-03T20:16:12.162Z,7.70
2019-02-03T20:18:43.696Z,9.68
2019-02-03T20:21:15.373Z,8.63
2019-02-03T20:23:47.099Z,8.75
2019-02-03T20:26:18.760Z,7.97
2019-02-03T20:28:50.212Z,7.65
2019-02-03T20:31:21.900Z,7.58
2019-02-03T20:33:53.204Z,8.58
2019-02-03T20:36:24.697Z,7.53
2019-02-03T20:38:56.330Z,8.43
2019-02-03T20:41:27.967Z,9.28
2019-02-03T20:44:18.622Z,7.92
2019-02-03T20:46:49.830Z,8.40
2019-02-03T20:49:21.450Z,8.70
2019-02-03T20:51:53.419Z,8.20
2019-02-03T20:54:25.024Z,8.18
2019-02-03T20:56:56.248Z,9.03
2019-02-03T20:59:27.648Z,8.38
2019-02-03T21:01:59.462Z,8.28
2019-02-03T21:04:30.709Z,9.15
2019-02-03T21:07:01.798Z,7.53
2019-02-03T21:09:32.897Z,8.43
2019-02-03T21:12:05.875Z,8.70
2019-02-03T21:14:36.968Z,7.90
2019-02-03T21:17:08.108Z,7.50
2019-02-03T21:19:39.262Z,8.40
2019-02-03T21:22:10.054Z,7.80
2019-02-03T21:24:40.835Z,8.70
2019-02-03T21:27:11.633Z,8.80
2019-02-03T21:29:42.427Z,8.43
2019-02-03T21:32:13.213Z,8.60
2019-02-03T21:34:43.985Z,9.47
2019-02-03T21:37:14.759Z,8.80
2019-02-03T21:39:45.535Z,8.37
2019-02-03T21:42:16.339Z,9.37
2019-02-03T21:44:47.104Z,9.70
2019-02-03T21:47:17.885Z,11.53
2019-02-03T21:49:48.648Z,9.30
2019-02-03T21:52:19.421Z,8.50
2019-02-03T21:54:50.192Z,9.00
2019-02-03T21:57:20.988Z,11.67
2019-02-03T21:59:51.778Z,10.97
2019-02-03T22:02:22.556Z,9.60
2019-02-03T22:04:53.321Z,10.00
2019-02-03T22:07:24.446Z,9.03
2019-02-03T22:09:55.490Z,9.48
2019-02-03T22:12:26.287Z,9.93
2019-02-03T22:14:57.170Z,9.27
2019-02-03T22:17:27.972Z,9.60
2019-02-03T22:19:58.746Z,10.40
2019-02-03T22:22:29.635Z,9.50
2019-02-03T22:25:00.404Z,9.37
2019-02-03T22:27:31.189Z,9.57
2019-02-03T22:30:05.267Z,10.53
2019-02-03T22:32:36.039Z,9.25
2019-02-03T22:35:08.508Z,11.27
2019-02-03T22:37:39.270Z,11.43
2019-02-03T22:40:18.546Z,8.03
2019-02-03T22:42:49.399Z,9.15
2019-02-03T22:45:22.183Z,10.30
2019-02-03T22:47:52.960Z,10.50
2019-02-03T22:50:26.754Z,10.47
2019-02-03T22:52:57.826Z,9.65
2019-02-03T22:55:28.635Z,10.77
2019-02-03T22:57:59.428Z,10.17
2019-02-03T23:00:51.716Z,10.23
2019-02-03T23:03:35.427Z,9.25
2019-02-03T23:06:06.195Z,10.65
2019-02-03T23:08:36.980Z,10.80
2019-02-03T23:11:07.857Z,8.80
2019-02-03T23:13:38.704Z,8.90
2019-02-03T23:16:18.043Z,9.43
2019-02-03T23:18:42.158Z,11.10
2019-02-03T23:21:12.988Z,9.07
2019-02-03T23:23:43.786Z,8.60
2019-02-03T23:26:14.555Z,8.33
2019-02-03T23:28:45.321Z,9.53
2019-02-03T23:31:16.094Z,8.73
2019-02-03T23:33:47.020Z,9.10
2019-02-03T23:36:17.816Z,8.07
2019-02-03T23:38:48.587Z,8.50
2019-02-03T23:41:19.386Z,8.93
2019-02-03T23:43:50.156Z,8.60
2019-02-03T23:46:29.301Z,8.23
2019-02-03T23:48:53.611Z,9.08
2019-02-03T23:51:24.388Z,8.27
2019-02-03T23:53:55.301Z,8.60
2019-02-03T23:56:26.084Z,8.87
2019-02-03T23:58:56.889Z,7.57
